sensor_id;sensor_type;location;lat;lon;timestamp;temperature;humidity
60860;DHT22;46694;54.382;9.708;2024-03-02T00:00:49;8.80;99.90
60860;DHT22;46694;54.382;9.708;2024-03-02T00:03:16;8.90;99.90
60860;DHT22;46694;54.382;9.708;2024-03-02T00:05:41;8.80;99.90
60860;DHT22;46694;54.382;9.708;2024-03-02T00:08:07;8.80;99.90
60860;DHT22;46694;54.382;9.708;2024-03-02T00:10:39;8.90;99.90
60860;DHT22;46694;54.382;9.708;2024-03-02T00:13:06;8.90;99.90
60860;DHT22;46694;54.382;9.708;2024-03-02T00:15:46;8.90;99.90
60860;DHT22;46694;54.382;9.708;2024-03-02T00:18:15;9.00;99.90
60860;DHT22;46694;54.382;9.708;2024-03-02T00:20:44;8.90;99.90
60860;DHT22;46694;54.382;9.708;2024-03-02T00:23:15;8.90;99.90
60860;DHT22;46694;54.382;9.708;2024-03-02T00:25:44;8.90;99.90
60860;DHT22;46694;54.382;9.708;2024-03-02T00:28:22;8.90;99.90
60860;DHT22;46694;54.382;9.708;2024-03-02T00:33:21;8.90;99.90
60860;DHT22;46694;54.382;9.708;2024-03-02T00:35:49;8.80;99.90
60860;DHT22;46694;54.382;9.708;2024-03-02T00:38:15;8.80;99.90
60860;DHT22;46694;54.382;9.708;2024-03-02T00:40:45;8.80;99.90
60860;DHT22;46694;54.382;9.708;2024-03-02T00:45:49;8.80;99.90
60860;DHT22;46694;54.382;9.708;2024-03-02T00:48:18;8.80;99.90
60860;DHT22;46694;54.382;9.708;2024-03-02T00:50:44;8.80;99.90
60860;DHT22;46694;54.382;9.708;2024-03-02T00:53:11;8.80;99.90
60860;DHT22;46694;54.382;9.708;2024-03-02T00:55:38;8.80;99.90
60860;DHT22;46694;54.382;9.708;2024-03-02T00:58:04;8.90;99.90
60860;DHT22;46694;54.382;9.708;2024-03-02T01:00:29;8.90;99.90
60860;DHT22;46694;54.382;9.708;2024-03-02T01:02:55;8.90;99.90
60860;DHT22;46694;54.382;9.708;2024-03-02T01:05:21;8.90;99.90
60860;DHT22;46694;54.382;9.708;2024-03-02T01:07:46;8.90;99.90
60860;DHT22;46694;54.382;9.708;2024-03-02T01:10:12;8.90;99.90
60860;DHT22;46694;54.382;9.708;2024-03-02T01:12:38;8.80;99.90
60860;DHT22;46694;54.382;9.708;2024-03-02T01:15:05;8.90;99.90
60860;DHT22;46694;54.382;9.708;2024-03-02T01:17:33;8.90;99.90
60860;DHT22;46694;54.382;9.708;2024-03-02T01:19:59;8.90;99.90
60860;DHT22;46694;54.382;9.708;2024-03-02T01:22:25;8.90;99.90
60860;DHT22;46694;54.382;9.708;2024-03-02T01:24:51;8.90;99.90
60860;DHT22;46694;54.382;9.708;2024-03-02T01:27:17;9.00;99.90
60860;DHT22;46694;54.382;9.708;2024-03-02T01:29:42;8.90;99.90
60860;DHT22;46694;54.382;9.708;2024-03-02T01:32:08;8.90;99.90
60860;DHT22;46694;54.382;9.708;2024-03-02T01:34:34;8.90;99.90
60860;DHT22;46694;54.382;9.708;2024-03-02T01:37:00;8.90;99.90
60860;DHT22;46694;54.382;9.708;2024-03-02T01:39:25;8.90;99.90
60860;DHT22;46694;54.382;9.708;2024-03-02T01:41:53;8.90;99.90
60860;DHT22;46694;54.382;9.708;2024-03-02T01:44:19;9.00;99.90
60860;DHT22;46694;54.382;9.708;2024-03-02T01:46:45;9.00;99.90
60860;DHT22;46694;54.382;9.708;2024-03-02T01:49:11;8.90;99.90
60860;DHT22;46694;54.382;9.708;2024-03-02T01:51:36;9.00;99.90
60860;DHT22;46694;54.382;9.708;2024-03-02T01:54:03;9.00;99.90
60860;DHT22;46694;54.382;9.708;2024-03-02T01:56:28;8.90;99.90
60860;DHT22;46694;54.382;9.708;2024-03-02T01:58:54;8.90;99.90
60860;DHT22;46694;54.382;9.708;2024-03-02T02:01:20;8.90;99.90
60860;DHT22;46694;54.382;9.708;2024-03-02T02:03:46;9.00;99.90
60860;DHT22;46694;54.382;9.708;2024-03-02T02:06:11;8.90;99.90
60860;DHT22;46694;54.382;9.708;2024-03-02T02:08:37;9.00;99.90
60860;DHT22;46694;54.382;9.708;2024-03-02T02:11:03;9.00;99.90
60860;DHT22;46694;54.382;9.708;2024-03-02T02:13:29;9.00;99.90
60860;DHT22;46694;54.382;9.708;2024-03-02T02:15:55;8.90;99.90
60860;DHT22;46694;54.382;9.708;2024-03-02T02:18:21;8.90;99.90
60860;DHT22;46694;54.382;9.708;2024-03-02T02:20:46;8.90;99.90
60860;DHT22;46694;54.382;9.708;2024-03-02T02:23:12;8.90;99.90
60860;DHT22;46694;54.382;9.708;2024-03-02T02:25:39;8.90;99.90
60860;DHT22;46694;54.382;9.708;2024-03-02T02:28:04;9.00;99.90
60860;DHT22;46694;54.382;9.708;2024-03-02T02:30:31;8.90;99.90
60860;DHT22;46694;54.382;9.708;2024-03-02T02:32:58;8.90;99.90
60860;DHT22;46694;54.382;9.708;2024-03-02T02:35:24;8.90;99.90
60860;DHT22;46694;54.382;9.708;2024-03-02T02:37:51;8.90;99.90
60860;DHT22;46694;54.382;9.708;2024-03-02T02:40:18;8.90;99.90
60860;DHT22;46694;54.382;9.708;2024-03-02T02:42:46;8.90;99.90
60860;DHT22;46694;54.382;9.708;2024-03-02T02:45:13;8.90;99.90
60860;DHT22;46694;54.382;9.708;2024-03-02T02:47:40;8.90;99.90
60860;DHT22;46694;54.382;9.708;2024-03-02T02:50:08;8.90;99.90
60860;DHT22;46694;54.382;9.708;2024-03-02T02:52:39;8.80;99.90
60860;DHT22;46694;54.382;9.708;2024-03-02T02:55:08;8.80;99.90
60860;DHT22;46694;54.382;9.708;2024-03-02T02:57:35;8.80;99.90
60860;DHT22;46694;54.382;9.708;2024-03-02T03:00:08;8.80;99.90
60860;DHT22;46694;54.382;9.708;2024-03-02T03:02:42;8.80;99.90
60860;DHT22;46694;54.382;9.708;2024-03-02T03:05:13;8.80;99.90
60860;DHT22;46694;54.382;9.708;2024-03-02T03:07:40;8.80;99.90
60860;DHT22;46694;54.382;9.708;2024-03-02T03:10:07;8.80;99.90
60860;DHT22;46694;54.382;9.708;2024-03-02T03:12:34;8.80;99.90
60860;DHT22;46694;54.382;9.708;2024-03-02T03:15:01;8.70;99.90
60860;DHT22;46694;54.382;9.708;2024-03-02T03:17:27;8.80;99.90
60860;DHT22;46694;54.382;9.708;2024-03-02T03:19:56;8.70;99.90
60860;DHT22;46694;54.382;9.708;2024-03-02T03:22:21;8.70;99.90
60860;DHT22;46694;54.382;9.708;2024-03-02T03:24:47;8.70;99.90
60860;DHT22;46694;54.382;9.708;2024-03-02T03:27:13;8.70;99.90
60860;DHT22;46694;54.382;9.708;2024-03-02T03:29:39;8.70;99.90
60860;DHT22;46694;54.382;9.708;2024-03-02T03:32:05;8.60;99.90
60860;DHT22;46694;54.382;9.708;2024-03-02T03:34:35;8.60;99.90
60860;DHT22;46694;54.382;9.708;2024-03-02T03:37:02;8.60;99.90
60860;DHT22;46694;54.382;9.708;2024-03-02T03:39:28;8.60;99.90
60860;DHT22;46694;54.382;9.708;2024-03-02T03:41:54;8.60;99.90
60860;DHT22;46694;54.382;9.708;2024-03-02T03:44:20;8.60;99.90
60860;DHT22;46694;54.382;9.708;2024-03-02T03:46:46;8.60;99.90
60860;DHT22;46694;54.382;9.708;2024-03-02T03:49:12;8.60;99.90
60860;DHT22;46694;54.382;9.708;2024-03-02T03:51:37;8.60;99.90
60860;DHT22;46694;54.382;9.708;2024-03-02T03:54:03;8.60;99.90
60860;DHT22;46694;54.382;9.708;2024-03-02T03:56:29;8.60;99.90
60860;DHT22;46694;54.382;9.708;2024-03-02T03:58:55;8.60;99.90
60860;DHT22;46694;54.382;9.708;2024-03-02T04:01:20;8.60;99.90
60860;DHT22;46694;54.382;9.708;2024-03-02T04:03:48;8.60;99.90
60860;DHT22;46694;54.382;9.708;2024-03-02T04:06:17;8.60;99.90
60860;DHT22;46694;54.382;9.708;2024-03-02T04:08:43;8.60;99.90
60860;DHT22;46694;54.382;9.708;2024-03-02T04:11:09;8.60;99.90
60860;DHT22;46694;54.382;9.708;2024-03-02T04:13:34;8.60;99.90
60860;DHT22;46694;54.382;9.708;2024-03-02T04:16:00;8.60;99.90
60860;DHT22;46694;54.382;9.708;2024-03-02T04:18:26;8.60;99.90
60860;DHT22;46694;54.382;9.708;2024-03-02T04:20:52;8.50;99.90
60860;DHT22;46694;54.382;9.708;2024-03-02T04:23:17;8.60;99.90
60860;DHT22;46694;54.382;9.708;2024-03-02T04:25:43;8.60;99.90
60860;DHT22;46694;54.382;9.708;2024-03-02T04:28:09;8.60;99.90
60860;DHT22;46694;54.382;9.708;2024-03-02T04:30:35;8.50;99.90
60860;DHT22;46694;54.382;9.708;2024-03-02T04:33:01;8.50;99.90
60860;DHT22;46694;54.382;9.708;2024-03-02T04:35:27;8.50;99.90
60860;DHT22;46694;54.382;9.708;2024-03-02T04:37:54;8.40;99.90
60860;DHT22;46694;54.382;9.708;2024-03-02T04:40:20;8.40;99.90
60860;DHT22;46694;54.382;9.708;2024-03-02T04:42:45;8.40;99.90
60860;DHT22;46694;54.382;9.708;2024-03-02T04:45:11;8.40;99.90
60860;DHT22;46694;54.382;9.708;2024-03-02T04:47:37;8.30;99.90
60860;DHT22;46694;54.382;9.708;2024-03-02T04:50:03;8.30;99.90
60860;DHT22;46694;54.382;9.708;2024-03-02T04:52:29;8.30;99.90
60860;DHT22;46694;54.382;9.708;2024-03-02T04:54:55;8.30;99.90
60860;DHT22;46694;54.382;9.708;2024-03-02T04:57:45;8.20;99.90
60860;DHT22;46694;54.382;9.708;2024-03-02T05:00:12;8.20;99.90
60860;DHT22;46694;54.382;9.708;2024-03-02T05:02:38;8.20;99.90
60860;DHT22;46694;54.382;9.708;2024-03-02T05:05:04;8.30;99.90
60860;DHT22;46694;54.382;9.708;2024-03-02T05:07:30;8.30;99.90
60860;DHT22;46694;54.382;9.708;2024-03-02T05:09:56;8.30;99.90
60860;DHT22;46694;54.382;9.708;2024-03-02T05:12:22;8.40;99.90
60860;DHT22;46694;54.382;9.708;2024-03-02T05:15:07;8.30;99.90
60860;DHT22;46694;54.382;9.708;2024-03-02T05:17:33;8.30;99.90
60860;DHT22;46694;54.382;9.708;2024-03-02T05:19:59;8.30;99.90
60860;DHT22;46694;54.382;9.708;2024-03-02T05:22:24;8.30;99.90
60860;DHT22;46694;54.382;9.708;2024-03-02T05:24:50;8.30;99.90
60860;DHT22;46694;54.382;9.708;2024-03-02T05:27:16;8.30;99.90
60860;DHT22;46694;54.382;9.708;2024-03-02T05:29:42;8.20;99.90
60860;DHT22;46694;54.382;9.708;2024-03-02T05:32:07;8.20;99.90
60860;DHT22;46694;54.382;9.708;2024-03-02T05:34:33;8.20;99.90
60860;DHT22;46694;54.382;9.708;2024-03-02T05:37:01;8.30;99.90
60860;DHT22;46694;54.382;9.708;2024-03-02T05:39:27;8.30;99.90
60860;DHT22;46694;54.382;9.708;2024-03-02T05:41:53;8.20;99.90
60860;DHT22;46694;54.382;9.708;2024-03-02T05:44:19;8.30;99.90
60860;DHT22;46694;54.382;9.708;2024-03-02T05:46:45;8.30;99.90
60860;DHT22;46694;54.382;9.708;2024-03-02T05:49:11;8.30;99.90
60860;DHT22;46694;54.382;9.708;2024-03-02T05:51:37;8.30;99.90
60860;DHT22;46694;54.382;9.708;2024-03-02T05:54:03;8.30;99.90
60860;DHT22;46694;54.382;9.708;2024-03-02T05:56:29;8.30;99.90
60860;DHT22;46694;54.382;9.708;2024-03-02T05:58:54;8.30;99.90
60860;DHT22;46694;54.382;9.708;2024-03-02T06:01:33;8.30;99.90
60860;DHT22;46694;54.382;9.708;2024-03-02T06:03:59;8.30;99.90
60860;DHT22;46694;54.382;9.708;2024-03-02T06:06:25;8.30;99.90
60860;DHT22;46694;54.382;9.708;2024-03-02T06:08:51;8.30;99.90
60860;DHT22;46694;54.382;9.708;2024-03-02T06:11:19;8.20;99.90
60860;DHT22;46694;54.382;9.708;2024-03-02T06:13:45;8.20;99.90
60860;DHT22;46694;54.382;9.708;2024-03-02T06:16:14;8.20;99.90
60860;DHT22;46694;54.382;9.708;2024-03-02T06:18:39;8.20;99.90
60860;DHT22;46694;54.382;9.708;2024-03-02T06:21:05;8.10;99.90
60860;DHT22;46694;54.382;9.708;2024-03-02T06:23:31;8.10;99.90
60860;DHT22;46694;54.382;9.708;2024-03-02T06:25:57;8.10;99.90
60860;DHT22;46694;54.382;9.708;2024-03-02T06:28:23;8.10;99.90
60860;DHT22;46694;54.382;9.708;2024-03-02T06:30:49;8.10;99.90
60860;DHT22;46694;54.382;9.708;2024-03-02T06:33:15;8.10;99.90
60860;DHT22;46694;54.382;9.708;2024-03-02T06:35:41;8.00;99.90
60860;DHT22;46694;54.382;9.708;2024-03-02T06:38:07;8.00;99.90
60860;DHT22;46694;54.382;9.708;2024-03-02T06:40:33;8.00;99.90
60860;DHT22;46694;54.382;9.708;2024-03-02T06:42:59;8.00;99.90
60860;DHT22;46694;54.382;9.708;2024-03-02T06:45:25;7.90;99.90
60860;DHT22;46694;54.382;9.708;2024-03-02T06:47:51;7.90;99.90
60860;DHT22;46694;54.382;9.708;2024-03-02T06:50:17;7.90;99.90
60860;DHT22;46694;54.382;9.708;2024-03-02T06:52:42;7.90;99.90
60860;DHT22;46694;54.382;9.708;2024-03-02T06:55:09;7.90;99.90
60860;DHT22;46694;54.382;9.708;2024-03-02T06:57:34;7.80;99.90
60860;DHT22;46694;54.382;9.708;2024-03-02T07:00:00;7.80;99.90
60860;DHT22;46694;54.382;9.708;2024-03-02T07:02:27;7.80;99.90
60860;DHT22;46694;54.382;9.708;2024-03-02T07:04:55;7.90;99.90
60860;DHT22;46694;54.382;9.708;2024-03-02T07:07:21;7.90;99.90
60860;DHT22;46694;54.382;9.708;2024-03-02T07:09:47;7.90;99.90
60860;DHT22;46694;54.382;9.708;2024-03-02T07:12:13;7.90;99.90
60860;DHT22;46694;54.382;9.708;2024-03-02T07:14:39;8.00;99.90
60860;DHT22;46694;54.382;9.708;2024-03-02T07:17:24;8.00;99.90
60860;DHT22;46694;54.382;9.708;2024-03-02T07:19:50;8.00;99.90
60860;DHT22;46694;54.382;9.708;2024-03-02T07:22:16;8.00;99.90
60860;DHT22;46694;54.382;9.708;2024-03-02T07:24:42;8.00;99.90
60860;DHT22;46694;54.382;9.708;2024-03-02T07:27:09;8.10;99.90
60860;DHT22;46694;54.382;9.708;2024-03-02T07:29:36;8.10;99.90
60860;DHT22;46694;54.382;9.708;2024-03-02T07:32:01;8.10;99.90
60860;DHT22;46694;54.382;9.708;2024-03-02T07:34:27;8.10;99.90
60860;DHT22;46694;54.382;9.708;2024-03-02T07:36:53;8.20;99.90
60860;DHT22;46694;54.382;9.708;2024-03-02T07:39:19;8.20;99.90
60860;DHT22;46694;54.382;9.708;2024-03-02T07:41:45;8.40;99.90
60860;DHT22;46694;54.382;9.708;2024-03-02T07:44:12;8.50;99.90
60860;DHT22;46694;54.382;9.708;2024-03-02T07:46:44;8.50;99.90
60860;DHT22;46694;54.382;9.708;2024-03-02T07:49:12;8.60;99.90
60860;DHT22;46694;54.382;9.708;2024-03-02T07:51:39;8.60;99.90
60860;DHT22;46694;54.382;9.708;2024-03-02T07:54:05;8.70;99.90
60860;DHT22;46694;54.382;9.708;2024-03-02T07:56:31;8.70;99.90
60860;DHT22;46694;54.382;9.708;2024-03-02T07:58:57;8.80;99.90
60860;DHT22;46694;54.382;9.708;2024-03-02T08:01:34;8.80;99.90
60860;DHT22;46694;54.382;9.708;2024-03-02T08:04:00;8.90;99.90
60860;DHT22;46694;54.382;9.708;2024-03-02T08:06:29;8.90;99.90
60860;DHT22;46694;54.382;9.708;2024-03-02T08:08:59;8.90;99.90
60860;DHT22;46694;54.382;9.708;2024-03-02T08:11:26;9.00;99.90
60860;DHT22;46694;54.382;9.708;2024-03-02T08:13:53;8.90;99.90
60860;DHT22;46694;54.382;9.708;2024-03-02T08:16:23;9.00;99.90
60860;DHT22;46694;54.382;9.708;2024-03-02T08:18:51;9.00;99.90
60860;DHT22;46694;54.382;9.708;2024-03-02T08:21:17;9.00;99.90
60860;DHT22;46694;54.382;9.708;2024-03-02T08:23:43;9.00;99.90
60860;DHT22;46694;54.382;9.708;2024-03-02T08:26:10;9.10;99.90
60860;DHT22;46694;54.382;9.708;2024-03-02T08:28:37;9.10;99.90
60860;DHT22;46694;54.382;9.708;2024-03-02T08:31:06;9.10;99.90
60860;DHT22;46694;54.382;9.708;2024-03-02T08:33:32;9.10;99.90
60860;DHT22;46694;54.382;9.708;2024-03-02T08:35:59;9.10;99.90
60860;DHT22;46694;54.382;9.708;2024-03-02T08:38:25;9.10;99.90
60860;DHT22;46694;54.382;9.708;2024-03-02T08:40:51;9.10;99.90
60860;DHT22;46694;54.382;9.708;2024-03-02T08:43:17;9.10;99.90
60860;DHT22;46694;54.382;9.708;2024-03-02T08:45:43;9.10;99.90
60860;DHT22;46694;54.382;9.708;2024-03-02T08:48:10;9.10;99.90
60860;DHT22;46694;54.382;9.708;2024-03-02T08:50:36;9.10;99.90
60860;DHT22;46694;54.382;9.708;2024-03-02T08:53:03;9.00;99.90
60860;DHT22;46694;54.382;9.708;2024-03-02T08:55:30;9.10;99.90
60860;DHT22;46694;54.382;9.708;2024-03-02T08:57:56;9.10;99.90
60860;DHT22;46694;54.382;9.708;2024-03-02T09:00:22;9.20;99.90
60860;DHT22;46694;54.382;9.708;2024-03-02T09:02:48;9.30;99.90
60860;DHT22;46694;54.382;9.708;2024-03-02T09:05:15;9.40;99.90
60860;DHT22;46694;54.382;9.708;2024-03-02T09:07:41;9.50;99.90
60860;DHT22;46694;54.382;9.708;2024-03-02T09:10:08;9.70;99.90
60860;DHT22;46694;54.382;9.708;2024-03-02T09:12:35;9.90;99.90
60860;DHT22;46694;54.382;9.708;2024-03-02T09:15:01;10.00;99.90
60860;DHT22;46694;54.382;9.708;2024-03-02T09:17:31;10.10;99.90
60860;DHT22;46694;54.382;9.708;2024-03-02T09:19:57;10.20;99.90
60860;DHT22;46694;54.382;9.708;2024-03-02T09:22:23;10.30;99.90
60860;DHT22;46694;54.382;9.708;2024-03-02T09:24:49;10.50;99.90
60860;DHT22;46694;54.382;9.708;2024-03-02T09:27:14;10.60;99.90
60860;DHT22;46694;54.382;9.708;2024-03-02T09:29:40;10.60;99.90
60860;DHT22;46694;54.382;9.708;2024-03-02T09:32:08;10.70;99.90
60860;DHT22;46694;54.382;9.708;2024-03-02T09:34:34;10.60;99.90
60860;DHT22;46694;54.382;9.708;2024-03-02T09:36:59;10.70;99.90
60860;DHT22;46694;54.382;9.708;2024-03-02T09:39:25;10.80;99.90
60860;DHT22;46694;54.382;9.708;2024-03-02T09:41:51;11.00;99.90
60860;DHT22;46694;54.382;9.708;2024-03-02T09:44:17;11.10;99.90
60860;DHT22;46694;54.382;9.708;2024-03-02T09:46:43;11.20;99.90
60860;DHT22;46694;54.382;9.708;2024-03-02T09:49:12;11.20;99.90
60860;DHT22;46694;54.382;9.708;2024-03-02T09:51:40;11.20;99.90
60860;DHT22;46694;54.382;9.708;2024-03-02T09:54:07;11.20;99.90
60860;DHT22;46694;54.382;9.708;2024-03-02T09:56:33;11.20;99.90
60860;DHT22;46694;54.382;9.708;2024-03-02T09:58:59;11.10;99.90
60860;DHT22;46694;54.382;9.708;2024-03-02T10:01:25;11.10;99.90
60860;DHT22;46694;54.382;9.708;2024-03-02T10:03:52;11.10;99.90
60860;DHT22;46694;54.382;9.708;2024-03-02T10:06:28;11.00;99.90
60860;DHT22;46694;54.382;9.708;2024-03-02T10:08:55;11.00;99.90
60860;DHT22;46694;54.382;9.708;2024-03-02T10:11:29;11.10;99.90
60860;DHT22;46694;54.382;9.708;2024-03-02T10:16:37;11.30;99.90
60860;DHT22;46694;54.382;9.708;2024-03-02T10:19:19;11.40;99.90
60860;DHT22;46694;54.382;9.708;2024-03-02T10:21:47;11.40;99.90
60860;DHT22;46694;54.382;9.708;2024-03-02T10:24:17;11.40;99.90
60860;DHT22;46694;54.382;9.708;2024-03-02T10:26:43;11.50;99.90
60860;DHT22;46694;54.382;9.708;2024-03-02T10:29:10;11.70;99.90
60860;DHT22;46694;54.382;9.708;2024-03-02T10:31:41;11.80;99.90
60860;DHT22;46694;54.382;9.708;2024-03-02T10:34:08;12.00;99.90
60860;DHT22;46694;54.382;9.708;2024-03-02T10:36:35;12.20;99.90
60860;DHT22;46694;54.382;9.708;2024-03-02T10:39:06;12.30;99.90
60860;DHT22;46694;54.382;9.708;2024-03-02T10:41:37;12.30;99.90
60860;DHT22;46694;54.382;9.708;2024-03-02T10:44:08;12.40;99.90
60860;DHT22;46694;54.382;9.708;2024-03-02T10:46:38;12.40;99.90
60860;DHT22;46694;54.382;9.708;2024-03-02T10:49:05;12.50;99.90
60860;DHT22;46694;54.382;9.708;2024-03-02T10:51:33;12.50;99.90
60860;DHT22;46694;54.382;9.708;2024-03-02T10:54:00;12.50;99.90
60860;DHT22;46694;54.382;9.708;2024-03-02T10:56:40;12.50;99.90
60860;DHT22;46694;54.382;9.708;2024-03-02T11:01:59;12.50;99.90
60860;DHT22;46694;54.382;9.708;2024-03-02T11:04:27;12.60;99.90
60860;DHT22;46694;54.382;9.708;2024-03-02T11:07:08;12.60;99.90
60860;DHT22;46694;54.382;9.708;2024-03-02T11:09:45;12.70;99.90
60860;DHT22;46694;54.382;9.708;2024-03-02T11:12:34;12.80;99.90
60860;DHT22;46694;54.382;9.708;2024-03-02T11:15:06;12.90;99.90
60860;DHT22;46694;54.382;9.708;2024-03-02T11:17:36;12.90;99.90
60860;DHT22;46694;54.382;9.708;2024-03-02T11:20:04;12.80;99.90
60860;DHT22;46694;54.382;9.708;2024-03-02T11:22:30;12.70;99.90
60860;DHT22;46694;54.382;9.708;2024-03-02T11:24:56;12.70;99.90
60860;DHT22;46694;54.382;9.708;2024-03-02T11:33:06;12.60;99.90
60860;DHT22;46694;54.382;9.708;2024-03-02T11:35:42;12.60;99.90
60860;DHT22;46694;54.382;9.708;2024-03-02T11:38:10;12.60;99.90
60860;DHT22;46694;54.382;9.708;2024-03-02T11:40:36;12.50;99.90
60860;DHT22;46694;54.382;9.708;2024-03-02T11:43:02;12.60;99.90
60860;DHT22;46694;54.382;9.708;2024-03-02T11:45:28;12.60;99.90
60860;DHT22;46694;54.382;9.708;2024-03-02T11:47:55;12.50;99.90
60860;DHT22;46694;54.382;9.708;2024-03-02T11:50:30;12.50;99.90
60860;DHT22;46694;54.382;9.708;2024-03-02T11:52:58;12.40;99.90
60860;DHT22;46694;54.382;9.708;2024-03-02T11:55:25;12.40;99.90
60860;DHT22;46694;54.382;9.708;2024-03-02T11:57:55;12.30;99.90
60860;DHT22;46694;54.382;9.708;2024-03-02T12:00:21;12.30;99.90
60860;DHT22;46694;54.382;9.708;2024-03-02T12:03:06;12.30;99.90
60860;DHT22;46694;54.382;9.708;2024-03-02T12:05:34;12.30;99.90
60860;DHT22;46694;54.382;9.708;2024-03-02T12:08:02;12.30;99.90
60860;DHT22;46694;54.382;9.708;2024-03-02T12:10:30;12.30;99.90
60860;DHT22;46694;54.382;9.708;2024-03-02T12:13:01;12.30;99.90
60860;DHT22;46694;54.382;9.708;2024-03-02T12:15:29;12.30;99.90
60860;DHT22;46694;54.382;9.708;2024-03-02T12:17:58;12.30;99.90
60860;DHT22;46694;54.382;9.708;2024-03-02T12:20:26;12.30;99.90
60860;DHT22;46694;54.382;9.708;2024-03-02T12:22:55;12.30;99.90
60860;DHT22;46694;54.382;9.708;2024-03-02T12:25:24;12.30;99.90
60860;DHT22;46694;54.382;9.708;2024-03-02T12:27:53;12.40;99.90
60860;DHT22;46694;54.382;9.708;2024-03-02T12:30:20;12.40;99.90
60860;DHT22;46694;54.382;9.708;2024-03-02T12:32:47;12.40;99.90
60860;DHT22;46694;54.382;9.708;2024-03-02T12:35:13;12.40;99.90
60860;DHT22;46694;54.382;9.708;2024-03-02T12:37:43;12.30;99.90
60860;DHT22;46694;54.382;9.708;2024-03-02T12:40:10;12.30;99.90
60860;DHT22;46694;54.382;9.708;2024-03-02T12:42:37;12.30;99.90
60860;DHT22;46694;54.382;9.708;2024-03-02T12:45:04;12.40;99.90
60860;DHT22;46694;54.382;9.708;2024-03-02T12:47:31;12.50;99.90
60860;DHT22;46694;54.382;9.708;2024-03-02T12:49:58;12.50;99.90
60860;DHT22;46694;54.382;9.708;2024-03-02T12:52:24;12.60;99.90
60860;DHT22;46694;54.382;9.708;2024-03-02T12:54:50;12.60;99.90
60860;DHT22;46694;54.382;9.708;2024-03-02T12:57:18;12.60;99.90
60860;DHT22;46694;54.382;9.708;2024-03-02T12:59:48;12.60;99.90
60860;DHT22;46694;54.382;9.708;2024-03-02T13:02:20;12.60;99.90
60860;DHT22;46694;54.382;9.708;2024-03-02T13:04:53;12.60;99.90
60860;DHT22;46694;54.382;9.708;2024-03-02T13:07:24;12.60;99.90
60860;DHT22;46694;54.382;9.708;2024-03-02T13:09:50;12.60;99.90
60860;DHT22;46694;54.382;9.708;2024-03-02T13:12:17;12.60;99.90
60860;DHT22;46694;54.382;9.708;2024-03-02T13:14:44;12.60;99.90
60860;DHT22;46694;54.382;9.708;2024-03-02T13:17:09;12.70;99.90
60860;DHT22;46694;54.382;9.708;2024-03-02T13:19:35;12.80;99.90
60860;DHT22;46694;54.382;9.708;2024-03-02T13:22:01;12.80;99.90
60860;DHT22;46694;54.382;9.708;2024-03-02T13:24:29;12.80;99.90
60860;DHT22;46694;54.382;9.708;2024-03-02T13:26:55;12.80;99.90
60860;DHT22;46694;54.382;9.708;2024-03-02T13:29:23;12.80;99.90
60860;DHT22;46694;54.382;9.708;2024-03-02T13:31:50;12.80;99.90
60860;DHT22;46694;54.382;9.708;2024-03-02T13:34:16;12.90;99.90
60860;DHT22;46694;54.382;9.708;2024-03-02T13:36:42;12.90;99.90
60860;DHT22;46694;54.382;9.708;2024-03-02T13:39:08;13.00;99.90
60860;DHT22;46694;54.382;9.708;2024-03-02T13:41:36;13.00;99.90
60860;DHT22;46694;54.382;9.708;2024-03-02T13:44:03;13.10;99.90
60860;DHT22;46694;54.382;9.708;2024-03-02T13:46:29;13.20;99.90
60860;DHT22;46694;54.382;9.708;2024-03-02T13:48:55;13.40;99.90
60860;DHT22;46694;54.382;9.708;2024-03-02T13:51:21;13.40;99.90
60860;DHT22;46694;54.382;9.708;2024-03-02T13:53:47;13.50;99.90
60860;DHT22;46694;54.382;9.708;2024-03-02T13:56:13;13.50;99.90
60860;DHT22;46694;54.382;9.708;2024-03-02T13:58:39;13.50;99.90
60860;DHT22;46694;54.382;9.708;2024-03-02T14:01:05;13.60;99.90
60860;DHT22;46694;54.382;9.708;2024-03-02T14:03:31;13.60;99.90
60860;DHT22;46694;54.382;9.708;2024-03-02T14:05:57;13.70;99.90
60860;DHT22;46694;54.382;9.708;2024-03-02T14:08:23;13.70;99.90
60860;DHT22;46694;54.382;9.708;2024-03-02T14:10:49;13.70;99.90
60860;DHT22;46694;54.382;9.708;2024-03-02T14:13:15;13.80;99.90
60860;DHT22;46694;54.382;9.708;2024-03-02T14:15:41;13.80;99.90
60860;DHT22;46694;54.382;9.708;2024-03-02T14:18:07;13.70;99.90
60860;DHT22;46694;54.382;9.708;2024-03-02T14:20:36;13.70;99.90
60860;DHT22;46694;54.382;9.708;2024-03-02T14:23:02;13.70;99.90
60860;DHT22;46694;54.382;9.708;2024-03-02T14:25:29;13.60;99.90
60860;DHT22;46694;54.382;9.708;2024-03-02T14:27:59;13.60;99.90
60860;DHT22;46694;54.382;9.708;2024-03-02T14:30:25;13.60;99.90
60860;DHT22;46694;54.382;9.708;2024-03-02T14:32:51;13.50;99.90
60860;DHT22;46694;54.382;9.708;2024-03-02T14:35:17;13.40;99.90
60860;DHT22;46694;54.382;9.708;2024-03-02T14:37:43;13.20;99.90
60860;DHT22;46694;54.382;9.708;2024-03-02T14:40:10;13.20;99.90
60860;DHT22;46694;54.382;9.708;2024-03-02T14:42:37;13.20;99.90
60860;DHT22;46694;54.382;9.708;2024-03-02T14:45:03;13.10;99.90
60860;DHT22;46694;54.382;9.708;2024-03-02T14:47:32;13.20;99.90
60860;DHT22;46694;54.382;9.708;2024-03-02T14:49:59;13.10;99.90
60860;DHT22;46694;54.382;9.708;2024-03-02T14:52:25;13.10;99.90
60860;DHT22;46694;54.382;9.708;2024-03-02T14:54:50;13.00;99.90
60860;DHT22;46694;54.382;9.708;2024-03-02T14:57:16;13.00;99.90
60860;DHT22;46694;54.382;9.708;2024-03-02T14:59:42;12.90;99.90
60860;DHT22;46694;54.382;9.708;2024-03-02T15:02:08;12.90;99.90
60860;DHT22;46694;54.382;9.708;2024-03-02T15:04:34;12.90;99.90
60860;DHT22;46694;54.382;9.708;2024-03-02T15:07:00;12.90;99.90
60860;DHT22;46694;54.382;9.708;2024-03-02T15:09:26;12.90;99.90
60860;DHT22;46694;54.382;9.708;2024-03-02T15:11:52;12.90;99.90
60860;DHT22;46694;54.382;9.708;2024-03-02T15:14:17;12.80;99.90
60860;DHT22;46694;54.382;9.708;2024-03-02T15:16:43;12.90;99.90
60860;DHT22;46694;54.382;9.708;2024-03-02T15:19:09;12.90;99.90
60860;DHT22;46694;54.382;9.708;2024-03-02T15:21:35;12.90;99.90
60860;DHT22;46694;54.382;9.708;2024-03-02T15:24:01;12.90;99.90
60860;DHT22;46694;54.382;9.708;2024-03-02T15:26:27;12.90;99.90
60860;DHT22;46694;54.382;9.708;2024-03-02T15:28:52;12.90;99.90
60860;DHT22;46694;54.382;9.708;2024-03-02T15:31:23;12.90;99.90
60860;DHT22;46694;54.382;9.708;2024-03-02T15:33:52;12.90;99.90
60860;DHT22;46694;54.382;9.708;2024-03-02T15:36:19;12.90;99.90
60860;DHT22;46694;54.382;9.708;2024-03-02T15:38:44;12.90;99.90
60860;DHT22;46694;54.382;9.708;2024-03-02T15:41:11;12.90;99.90
60860;DHT22;46694;54.382;9.708;2024-03-02T15:43:36;12.80;99.90
60860;DHT22;46694;54.382;9.708;2024-03-02T15:46:04;12.80;99.90
60860;DHT22;46694;54.382;9.708;2024-03-02T15:48:30;12.80;99.90
60860;DHT22;46694;54.382;9.708;2024-03-02T15:50:58;12.70;99.90
60860;DHT22;46694;54.382;9.708;2024-03-02T15:53:24;12.70;99.90
60860;DHT22;46694;54.382;9.708;2024-03-02T15:55:50;12.60;99.90